createdAt,value
2023-02-13T00:00:46.132Z,-1.45
2023-02-13T00:03:14.307Z,-1.45
2023-02-13T00:05:41.392Z,-1.65
2023-02-13T00:08:08.380Z,-1.65
2023-02-13T00:10:35.439Z,-1.76
2023-02-13T00:13:02.530Z,-1.76
2023-02-13T00:15:29.481Z,-1.68
2023-02-13T00:17:56.447Z,-1.57
2023-02-13T00:20:24.125Z,-1.70
2023-02-13T00:22:51.151Z,-1.82
2023-02-13T00:25:18.349Z,-1.89
2023-02-13T00:27:45.435Z,-1.94
2023-02-13T00:30:13.141Z,-1.84
2023-02-13T00:32:40.052Z,-2.04
2023-02-13T00:35:07.237Z,-2.11
2023-02-13T00:37:34.835Z,-2.03
2023-02-13T00:40:01.892Z,-2.17
2023-02-13T00:42:28.802Z,-1.56
2023-02-13T00:44:55.828Z,-1.95
2023-02-13T00:47:23.488Z,-2.07
2023-02-13T00:49:50.497Z,-2.21
2023-02-13T00:52:17.462Z,-2.20
2023-02-13T00:54:44.459Z,-2.15
2023-02-13T00:57:12.860Z,-2.17
2023-02-13T00:59:39.907Z,-2.14
2023-02-13T01:02:06.928Z,-1.93
2023-02-13T01:04:33.890Z,-1.86
2023-02-13T01:07:00.930Z,-1.94
2023-02-13T01:09:27.916Z,-2.02
2023-02-13T01:11:54.871Z,-1.91
2023-02-13T01:14:21.805Z,-1.78
2023-02-13T01:16:49.488Z,-1.76
2023-02-13T01:19:16.657Z,-1.92
2023-02-13T01:21:44.201Z,-1.92
2023-02-13T01:24:11.231Z,-1.96
2023-02-13T01:26:38.285Z,-1.89
2023-02-13T01:29:05.257Z,-2.07
2023-02-13T01:31:33.077Z,-2.17
2023-02-13T01:34:00.559Z,-2.34
2023-02-13T01:36:27.906Z,-2.33
2023-02-13T01:38:59.432Z,-2.36
2023-02-13T01:41:27.893Z,-2.45
2023-02-13T01:44:01.002Z,-2.54
2023-02-13T01:46:54.451Z,-2.60
2023-02-13T01:49:25.658Z,-2.56
2023-02-13T01:51:56.328Z,-2.51
2023-02-13T01:54:31.005Z,-2.41
2023-02-13T01:57:23.470Z,-2.41
2023-02-13T01:59:58.351Z,-2.26
2023-02-13T02:02:30.667Z,-2.37
2023-02-13T02:05:01.487Z,-2.30
2023-02-13T02:07:31.188Z,-2.34
2023-02-13T02:10:09.845Z,-2.40
2023-02-13T02:12:53.918Z,-2.43
2023-02-13T02:15:21.902Z,-2.33
2023-02-13T02:17:49.083Z,-2.20
2023-02-13T02:20:38.764Z,-2.53
2023-02-13T02:23:45.725Z,-2.62
2023-02-13T02:26:51.208Z,-2.54
2023-02-13T02:29:42.483Z,-2.67
2023-02-13T02:32:29.743Z,-2.65
2023-02-13T02:35:14.027Z,-2.68
2023-02-13T02:38:15.286Z,-2.80
2023-02-13T02:41:43.696Z,-2.57
2023-02-13T02:44:30.710Z,-2.63
2023-02-13T02:47:51.542Z,-2.66
2023-02-13T02:50:56.574Z,-2.42
2023-02-13T02:53:58.507Z,-2.56
2023-02-13T02:56:34.415Z,-2.76
2023-02-13T02:59:35.327Z,-2.79
2023-02-13T03:02:22.276Z,-2.88
2023-02-13T03:05:13.206Z,-2.92
2023-02-13T03:07:40.186Z,-3.03
2023-02-13T03:10:44.877Z,-2.96
2023-02-13T03:13:38.308Z,-3.08
2023-02-13T03:16:24.286Z,-3.17
2023-02-13T03:19:14.694Z,-3.20
2023-02-13T03:22:21.475Z,-3.11
2023-02-13T03:25:18.803Z,-2.93
2023-02-13T03:28:21.404Z,-2.76
2023-02-13T03:30:48.282Z,-2.78
2023-02-13T03:33:44.780Z,-2.76
2023-02-13T03:36:43.296Z,-2.93
2023-02-13T03:39:43.547Z,-2.89
2023-02-13T03:42:36.221Z,-3.02
2023-02-13T03:45:38.135Z,-3.04
2023-02-13T03:48:09.638Z,-3.23
2023-02-13T03:50:43.253Z,-3.26
2023-02-13T03:53:13.495Z,-3.32
2023-02-13T03:56:05.465Z,-3.38
2023-02-13T03:59:00.108Z,-3.46
2023-02-13T04:01:31.618Z,-3.49
2023-02-13T04:04:31.773Z,-3.34
2023-02-13T04:07:08.135Z,-3.03
2023-02-13T04:09:40.766Z,-2.94
2023-02-13T04:12:22.059Z,-2.83
2023-02-13T04:14:58.917Z,-2.85
2023-02-13T04:17:36.832Z,-2.85
2023-02-13T04:20:05.291Z,-2.86
2023-02-13T04:22:32.233Z,-2.91
2023-02-13T04:24:59.292Z,-2.95
2023-02-13T04:27:28.421Z,-3.08
2023-02-13T04:29:55.431Z,-3.15
2023-02-13T04:32:22.350Z,-3.22
2023-02-13T04:34:49.404Z,-3.14
2023-02-13T04:37:16.342Z,-3.28
2023-02-13T04:39:43.264Z,-3.15
2023-02-13T04:42:10.289Z,-3.19
2023-02-13T04:44:37.246Z,-3.27
2023-02-13T04:47:04.320Z,-3.38
2023-02-13T04:49:31.277Z,-3.40
2023-02-13T04:51:58.251Z,-3.38
2023-02-13T04:54:25.232Z,-3.39
2023-02-13T04:56:52.197Z,-3.30
2023-02-13T04:59:19.310Z,-3.30
2023-02-13T05:01:46.327Z,-3.35
2023-02-13T05:04:16.200Z,-3.41
2023-02-13T05:06:43.384Z,-3.37
2023-02-13T05:09:10.833Z,-3.39
2023-02-13T05:11:37.810Z,-3.41
2023-02-13T05:14:04.771Z,-3.31
2023-02-13T05:16:31.824Z,-3.46
2023-02-13T05:18:58.823Z,-3.42
2023-02-13T05:21:44.413Z,-3.58
2023-02-13T05:24:11.466Z,-3.17
2023-02-13T05:26:38.576Z,-3.42
2023-02-13T05:29:22.396Z,-3.43
2023-02-13T05:31:55.901Z,-3.47
2023-02-13T05:34:26.664Z,-3.61
2023-02-13T05:36:54.196Z,-3.68
2023-02-13T05:39:21.326Z,-3.77
2023-02-13T05:41:49.562Z,-3.68
2023-02-13T05:44:16.987Z,-3.66
2023-02-13T05:46:44.980Z,-3.76
2023-02-13T05:49:14.179Z,-3.72
2023-02-13T05:51:42.236Z,-3.70
2023-02-13T05:54:09.284Z,-3.61
2023-02-13T05:56:36.263Z,-3.48
2023-02-13T05:59:03.933Z,-3.49
2023-02-13T06:01:31.388Z,-3.63
2023-02-13T06:03:59.641Z,-3.58
2023-02-13T06:06:27.992Z,-3.73
2023-02-13T06:08:55.080Z,-3.81
2023-02-13T06:11:22.197Z,-3.92
2023-02-13T06:13:49.156Z,-3.81
2023-02-13T06:16:16.217Z,-3.77
2023-02-13T06:18:43.218Z,-3.76
2023-02-13T06:21:10.577Z,-3.92
2023-02-13T06:23:37.704Z,-3.93
2023-02-13T06:26:07.054Z,-4.04
2023-02-13T06:28:34.654Z,-4.06
2023-02-13T06:31:02.412Z,-4.07
2023-02-13T06:33:29.661Z,-3.87
2023-02-13T06:35:56.768Z,-3.99
2023-02-13T06:38:24.297Z,-3.75
2023-02-13T06:40:51.788Z,-3.83
2023-02-13T06:43:19.273Z,-3.90
2023-02-13T06:45:47.250Z,-3.67
2023-02-13T06:48:14.753Z,-3.67
2023-02-13T06:50:41.807Z,-3.77
2023-02-13T06:53:08.804Z,-3.58
2023-02-13T06:55:37.000Z,-3.47
2023-02-13T06:58:03.960Z,-3.45
2023-02-13T07:00:31.216Z,-3.40
2023-02-13T07:03:06.787Z,-3.21
2023-02-13T07:05:34.097Z,-2.99
2023-02-13T07:08:01.076Z,-3.32
2023-02-13T07:10:28.171Z,-3.31
2023-02-13T07:13:05.226Z,-3.28
2023-02-13T07:15:36.995Z,-3.33
2023-02-13T07:18:05.150Z,-3.26
2023-02-13T07:20:32.687Z,-3.27
2023-02-13T07:23:05.303Z,-3.30
2023-02-13T07:25:32.672Z,-3.23
2023-02-13T07:28:06.961Z,-3.28
2023-02-13T07:30:35.169Z,-3.03
2023-02-13T07:33:04.154Z,-2.88
2023-02-13T07:35:32.173Z,-2.69
2023-02-13T07:38:00.688Z,-2.46
2023-02-13T07:40:28.132Z,-2.12
2023-02-13T07:42:56.311Z,-1.78
2023-02-13T07:45:23.241Z,-1.51
2023-02-13T07:47:50.193Z,-1.11
2023-02-13T07:50:17.354Z,-0.46
2023-02-13T07:52:44.345Z,-0.23
2023-02-13T07:55:11.747Z,0.57
2023-02-13T07:57:38.815Z,1.25
2023-02-13T08:00:07.009Z,1.73
2023-02-13T08:02:39.042Z,2.13
2023-02-13T08:05:06.826Z,2.09
2023-02-13T08:07:34.363Z,2.55
2023-02-13T08:10:19.922Z,2.99
2023-02-13T08:12:47.314Z,3.47
2023-02-13T08:15:15.862Z,3.88
2023-02-13T08:17:42.772Z,4.09
2023-02-13T08:20:10.769Z,4.91
2023-02-13T08:22:39.049Z,5.16
2023-02-13T08:25:07.284Z,5.31
2023-02-13T08:27:34.674Z,5.65
2023-02-13T08:30:04.779Z,5.66
2023-02-13T08:32:39.513Z,6.11
2023-02-13T08:35:18.710Z,6.02
2023-02-13T08:37:46.694Z,6.78
2023-02-13T08:40:14.774Z,7.14
2023-02-13T08:42:41.970Z,8.35
2023-02-13T08:45:11.603Z,7.32
2023-02-13T08:47:39.919Z,6.94
2023-02-13T08:50:08.065Z,7.47
2023-02-13T08:52:35.566Z,7.92
2023-02-13T08:55:03.621Z,8.17
2023-02-13T08:57:31.333Z,8.64
2023-02-13T08:59:58.392Z,9.97
2023-02-13T09:02:25.538Z,10.74
2023-02-13T09:04:52.597Z,10.45
2023-02-13T09:07:19.518Z,11.16
2023-02-13T09:09:46.485Z,11.25
2023-02-13T09:12:13.585Z,12.26
2023-02-13T09:14:40.878Z,12.69
2023-02-13T09:17:08.170Z,12.81
2023-02-13T09:19:35.210Z,13.21
2023-02-13T09:22:02.235Z,12.80
2023-02-13T09:24:29.349Z,13.78
2023-02-13T09:26:56.677Z,14.16
2023-02-13T09:29:24.112Z,14.05
2023-02-13T09:31:51.284Z,14.18
2023-02-13T09:34:18.479Z,13.74
2023-02-13T09:36:45.443Z,13.90
2023-02-13T09:39:12.352Z,13.75
2023-02-13T09:41:43.092Z,13.82
2023-02-13T09:44:39.097Z,13.63
2023-02-13T09:47:16.885Z,14.47
2023-02-13T09:49:52.850Z,14.66
2023-02-13T09:52:20.095Z,14.53
2023-02-13T09:54:47.452Z,16.01
2023-02-13T09:57:25.579Z,16.45
2023-02-13T10:00:01.985Z,15.11
2023-02-13T10:03:08.413Z,15.73
2023-02-13T10:06:13.909Z,13.92
2023-02-13T10:09:07.243Z,13.81
2023-02-13T10:11:38.652Z,14.70
2023-02-13T10:14:18.836Z,15.67
2023-02-13T10:17:06.621Z,15.74
2023-02-13T10:19:55.342Z,16.76
2023-02-13T10:22:30.639Z,16.51
2023-02-13T10:25:17.146Z,16.46
2023-02-13T10:27:47.488Z,16.68
2023-02-13T10:30:21.532Z,16.38
2023-02-13T10:33:19.696Z,16.81
2023-02-13T10:36:05.963Z,17.81
2023-02-13T10:38:35.876Z,16.62
2023-02-13T10:41:22.007Z,17.43
2023-02-13T10:44:01.880Z,17.74
2023-02-13T10:47:23.252Z,17.81
2023-02-13T10:50:18.241Z,18.34
2023-02-13T10:52:55.144Z,17.17
2023-02-13T10:55:31.508Z,18.21
2023-02-13T10:58:16.972Z,18.12
2023-02-13T11:00:56.577Z,17.40
2023-02-13T11:03:26.382Z,16.84
2023-02-13T11:05:55.012Z,15.74
2023-02-13T11:08:30.719Z,17.55
2023-02-13T11:10:58.263Z,16.86
2023-02-13T11:13:28.478Z,17.40
2023-02-13T11:16:00.559Z,17.73
2023-02-13T11:18:30.881Z,18.81
2023-02-13T11:21:04.121Z,19.60
2023-02-13T11:23:31.457Z,19.25
2023-02-13T11:26:00.993Z,19.21
2023-02-13T11:28:30.689Z,19.49
2023-02-13T11:31:13.273Z,19.43
2023-02-13T11:33:40.953Z,18.43
2023-02-13T11:36:11.023Z,18.00
2023-02-13T11:38:38.404Z,15.71
2023-02-13T11:41:09.878Z,16.50
2023-02-13T11:43:51.189Z,17.12
2023-02-13T11:46:23.419Z,18.03
2023-02-13T11:48:58.013Z,18.30
2023-02-13T11:51:44.715Z,15.91
2023-02-13T11:54:40.284Z,16.15
2023-02-13T11:57:32.023Z,17.53
2023-02-13T12:00:01.119Z,17.66
2023-02-13T12:02:46.139Z,16.10
2023-02-13T12:05:22.446Z,17.32
2023-02-13T12:07:50.365Z,17.71
2023-02-13T12:10:29.005Z,18.78
2023-02-13T12:13:22.125Z,16.36
2023-02-13T12:15:54.159Z,15.74
2023-02-13T12:18:36.526Z,15.99
2023-02-13T12:21:15.595Z,16.14
2023-02-13T12:24:03.625Z,16.78
2023-02-13T12:26:50.588Z,18.64
2023-02-13T12:30:06.695Z,18.10
2023-02-13T12:32:59.959Z,19.01
2023-02-13T12:35:52.413Z,18.10
2023-02-13T12:38:35.311Z,18.35
2023-02-13T12:41:17.264Z,19.05
2023-02-13T12:43:53.177Z,18.88
2023-02-13T12:46:46.947Z,18.72
2023-02-13T12:49:54.740Z,18.87
2023-02-13T12:52:33.484Z,19.67
2023-02-13T12:55:31.343Z,20.28
2023-02-13T12:58:04.685Z,18.78
2023-02-13T13:00:49.833Z,19.25
2023-02-13T13:03:36.895Z,15.42
2023-02-13T13:06:31.527Z,15.57
2023-02-13T13:09:08.485Z,17.63
2023-02-13T13:11:56.998Z,14.18
2023-02-13T13:14:53.707Z,13.66
2023-02-13T13:17:52.828Z,13.05
2023-02-13T13:20:41.564Z,14.00
2023-02-13T13:23:40.588Z,13.77
2023-02-13T13:26:26.275Z,14.35
2023-02-13T13:28:56.195Z,14.27
2023-02-13T13:31:26.264Z,13.22
2023-02-13T13:33:55.072Z,12.49
2023-02-13T13:36:46.072Z,13.29
2023-02-13T13:39:30.261Z,14.44
2023-02-13T13:42:08.235Z,14.41
2023-02-13T13:45:12.489Z,14.93
2023-02-13T13:47:48.011Z,13.24
2023-02-13T13:50:26.741Z,13.15
2023-02-13T13:53:14.683Z,12.80
2023-02-13T13:55:48.549Z,13.56
2023-02-13T13:58:36.853Z,13.24
2023-02-13T14:01:20.351Z,12.37
2023-02-13T14:03:49.910Z,12.90
2023-02-13T14:06:25.678Z,12.76
2023-02-13T14:08:59.505Z,11.90
2023-02-13T14:11:34.662Z,11.75
2023-02-13T14:14:22.880Z,11.55
2023-02-13T14:16:50.518Z,11.34
2023-02-13T14:19:30.197Z,10.79
2023-02-13T14:22:20.275Z,10.67
2023-02-13T14:24:57.400Z,10.24
2023-02-13T14:27:33.671Z,10.22
2023-02-13T14:30:01.550Z,10.06
2023-02-13T14:32:32.487Z,10.00
2023-02-13T14:35:16.742Z,10.04
2023-02-13T14:37:53.288Z,10.09
2023-02-13T14:40:21.954Z,9.73
2023-02-13T14:42:59.119Z,9.90
2023-02-13T14:45:32.405Z,9.79
2023-02-13T14:48:08.227Z,9.77
2023-02-13T14:50:49.213Z,9.69
2023-02-13T14:53:39.261Z,9.55
2023-02-13T14:56:09.393Z,9.63
2023-02-13T14:58:41.060Z,9.58
2023-02-13T15:01:29.186Z,9.75
2023-02-13T15:04:14.958Z,9.57
2023-02-13T15:06:44.472Z,9.54
2023-02-13T15:09:32.875Z,9.50
2023-02-13T15:12:00.631Z,9.29
2023-02-13T15:14:35.217Z,9.16
2023-02-13T15:17:15.443Z,9.07
2023-02-13T15:19:49.135Z,9.13
2023-02-13T15:22:21.188Z,9.33
2023-02-13T15:24:50.218Z,9.02
2023-02-13T15:27:26.735Z,8.88
2023-02-13T15:29:55.788Z,8.62
2023-02-13T15:32:32.471Z,8.41
2023-02-13T15:35:00.102Z,8.32
2023-02-13T15:37:31.189Z,8.05
2023-02-13T15:40:15.238Z,8.00
2023-02-13T15:42:42.690Z,7.85
2023-02-13T15:45:17.985Z,7.71
2023-02-13T15:47:46.526Z,7.64
2023-02-13T15:50:31.930Z,7.41
2023-02-13T15:53:03.841Z,7.31
2023-02-13T15:55:33.489Z,7.18
2023-02-13T15:58:02.383Z,7.06
2023-02-13T16:00:35.533Z,6.95
2023-02-13T16:03:04.646Z,6.83
2023-02-13T16:05:40.554Z,6.62
2023-02-13T16:08:27.240Z,6.55
2023-02-13T16:11:16.181Z,6.36
2023-02-13T16:14:21.403Z,6.18
2023-02-13T16:17:00.678Z,5.99
2023-02-13T16:19:30.766Z,5.89
2023-02-13T16:22:18.030Z,5.77
2023-02-13T16:24:49.488Z,5.68
2023-02-13T16:27:17.608Z,5.57
2023-02-13T16:30:06.058Z,5.48
2023-02-13T16:32:38.228Z,5.36
2023-02-13T16:35:22.146Z,5.21
2023-02-13T16:37:56.342Z,5.09
2023-02-13T16:40:38.555Z,4.96
2023-02-13T16:43:33.931Z,4.81
2023-02-13T16:46:19.085Z,4.71
2023-02-13T16:48:59.893Z,4.64
2023-02-13T16:51:30.305Z,4.57
2023-02-13T16:53:58.872Z,4.46
2023-02-13T16:56:26.342Z,4.38
2023-02-13T16:59:05.815Z,4.28
2023-02-13T17:01:33.331Z,4.21
2023-02-13T17:04:01.014Z,4.12
2023-02-13T17:06:28.388Z,4.10
2023-02-13T17:08:55.990Z,4.03
2023-02-13T17:11:23.455Z,3.95
2023-02-13T17:13:50.896Z,3.89
2023-02-13T17:16:18.322Z,3.83
2023-02-13T17:18:45.902Z,3.72
2023-02-13T17:21:13.950Z,3.64
2023-02-13T17:23:42.089Z,3.56
2023-02-13T17:26:09.504Z,3.55
2023-02-13T17:28:36.892Z,3.45
2023-02-13T17:31:04.537Z,3.39
2023-02-13T17:33:34.899Z,3.37
2023-02-13T17:36:02.393Z,3.30
2023-02-13T17:38:29.944Z,3.29
2023-02-13T17:40:57.640Z,3.18
2023-02-13T17:43:26.880Z,3.10
2023-02-13T17:45:54.312Z,3.04
2023-02-13T17:48:21.809Z,2.93
2023-02-13T17:50:50.263Z,2.86
2023-02-13T17:53:25.663Z,2.78
2023-02-13T17:55:53.436Z,2.72
2023-02-13T17:58:20.775Z,2.68
2023-02-13T18:00:48.747Z,2.59
2023-02-13T18:03:16.376Z,2.49
2023-02-13T18:05:45.665Z,2.47
2023-02-13T18:08:13.000Z,2.39
2023-02-13T18:10:40.434Z,2.37
2023-02-13T18:13:08.066Z,2.29
2023-02-13T18:15:41.332Z,2.21
2023-02-13T18:18:09.113Z,2.21
2023-02-13T18:20:36.836Z,2.16
2023-02-13T18:23:04.318Z,2.07
2023-02-13T18:25:31.780Z,2.03
2023-02-13T18:27:59.435Z,1.94
2023-02-13T18:30:27.013Z,1.91
2023-02-13T18:32:56.465Z,1.76
2023-02-13T18:35:24.243Z,1.75
2023-02-13T18:37:51.826Z,1.64
2023-02-13T18:40:19.599Z,1.61
2023-02-13T18:42:47.610Z,1.55
2023-02-13T18:45:15.777Z,1.54
2023-02-13T18:47:43.194Z,1.47
2023-02-13T18:50:10.780Z,1.48
2023-02-13T18:52:38.539Z,1.38
2023-02-13T18:55:09.410Z,1.36
2023-02-13T18:57:37.119Z,1.28
2023-02-13T19:00:07.957Z,1.33
2023-02-13T19:02:35.537Z,1.24
2023-02-13T19:05:03.559Z,1.24
2023-02-13T19:07:31.028Z,1.20
2023-02-13T19:09:58.605Z,1.20
2023-02-13T19:12:26.133Z,1.15
2023-02-13T19:14:54.150Z,1.24
2023-02-13T19:17:21.675Z,1.15
2023-02-13T19:19:49.241Z,1.20
2023-02-13T19:22:16.949Z,1.27
2023-02-13T19:24:44.866Z,1.24
2023-02-13T19:27:12.474Z,1.07
2023-02-13T19:29:40.497Z,1.08
2023-02-13T19:32:08.256Z,1.04
2023-02-13T19:34:36.148Z,0.96
2023-02-13T19:37:03.787Z,0.87
2023-02-13T19:39:31.258Z,0.85
2023-02-13T19:41:58.825Z,0.79
2023-02-13T19:44:26.293Z,0.78
2023-02-13T19:46:53.613Z,0.68
2023-02-13T19:49:22.385Z,0.73
2023-02-13T19:51:50.158Z,0.67
2023-02-13T19:54:17.473Z,0.67
2023-02-13T19:56:44.995Z,0.68
2023-02-13T19:59:13.531Z,0.63
2023-02-13T20:01:45.756Z,0.60
2023-02-13T20:04:13.254Z,0.58
2023-02-13T20:06:40.654Z,0.50
2023-02-13T20:09:11.375Z,0.43
2023-02-13T20:11:39.448Z,0.45
2023-02-13T20:14:11.386Z,0.35
2023-02-13T20:16:38.892Z,0.33
2023-02-13T20:19:09.533Z,0.34
2023-02-13T20:21:37.835Z,0.31
2023-02-13T20:24:05.976Z,0.25
2023-02-13T20:26:34.029Z,0.23
2023-02-13T20:29:02.039Z,0.22
2023-02-13T20:31:30.801Z,0.27
2023-02-13T20:33:59.013Z,0.24
2023-02-13T20:36:31.169Z,0.29
2023-02-13T20:39:01.039Z,0.28
2023-02-13T20:41:31.600Z,0.30
2023-02-13T20:44:07.711Z,0.32
2023-02-13T20:46:37.276Z,0.26
2023-02-13T20:49:05.049Z,0.30
2023-02-13T20:51:32.703Z,0.26
2023-02-13T20:54:00.336Z,0.25
2023-02-13T20:56:28.537Z,0.24
2023-02-13T20:58:58.266Z,0.26
2023-02-13T21:01:28.581Z,0.22
2023-02-13T21:03:56.761Z,0.17
2023-02-13T21:06:30.320Z,0.08
2023-02-13T21:08:57.878Z,-0.06
2023-02-13T21:11:26.285Z,-0.08
2023-02-13T21:13:53.720Z,-0.15
2023-02-13T21:16:23.800Z,-0.28
2023-02-13T21:18:53.630Z,-0.26
2023-02-13T21:21:22.217Z,-0.30
2023-02-13T21:23:53.534Z,-0.25
2023-02-13T21:26:21.682Z,-0.10
2023-02-13T21:28:50.085Z,-0.06
2023-02-13T21:31:20.748Z,-0.03
2023-02-13T21:33:48.472Z,-0.09
2023-02-13T21:36:16.111Z,-0.02
2023-02-13T21:38:44.076Z,-0.09
2023-02-13T21:41:16.387Z,-0.17
2023-02-13T21:43:46.875Z,-0.11
2023-02-13T21:46:17.531Z,-0.12
2023-02-13T21:48:45.674Z,-0.11
2023-02-13T21:51:17.941Z,-0.15
2023-02-13T21:53:46.916Z,-0.12
2023-02-13T21:56:16.873Z,-0.17
2023-02-13T21:58:44.959Z,-0.22
2023-02-13T22:01:25.567Z,-0.31
2023-02-13T22:03:55.235Z,-0.40
2023-02-13T22:06:22.715Z,-0.50
2023-02-13T22:08:54.353Z,-0.44
2023-02-13T22:11:21.689Z,-0.52
2023-02-13T22:13:49.061Z,-0.57
2023-02-13T22:16:16.590Z,-0.74
2023-02-13T22:18:45.159Z,-0.89
2023-02-13T22:21:15.665Z,-0.83
2023-02-13T22:23:44.019Z,-0.95
2023-02-13T22:26:19.895Z,-0.90
2023-02-13T22:28:48.055Z,-0.83
2023-02-13T22:31:16.650Z,-0.80
2023-02-13T22:33:47.764Z,-0.80
2023-02-13T22:36:18.274Z,-0.70
2023-02-13T22:38:45.699Z,-0.80
2023-02-13T22:41:15.801Z,-0.87
2023-02-13T22:43:43.615Z,-0.87
2023-02-13T22:46:17.277Z,-0.71
2023-02-13T22:48:46.115Z,-0.71
2023-02-13T22:51:16.756Z,-0.80
2023-02-13T22:53:44.565Z,-0.91
2023-02-13T22:56:12.130Z,-0.80
2023-02-13T22:58:40.121Z,-0.82
2023-02-13T23:01:15.581Z,-0.70
2023-02-13T23:03:43.115Z,-0.72
2023-02-13T23:06:12.124Z,-0.69
2023-02-13T23:08:39.961Z,-0.67
2023-02-13T23:11:31.287Z,-0.69
2023-02-13T23:13:58.741Z,-0.66
2023-02-13T23:16:26.750Z,-0.74
2023-02-13T23:18:55.971Z,-0.73
2023-02-13T23:21:24.540Z,-0.86
2023-02-13T23:23:52.166Z,-0.78
2023-02-13T23:26:19.645Z,-0.85
2023-02-13T23:28:47.067Z,-0.80
2023-02-13T23:31:14.544Z,-0.86
2023-02-13T23:33:41.991Z,-0.78
2023-02-13T23:36:09.405Z,-0.91
2023-02-13T23:38:36.755Z,-0.93
2023-02-13T23:41:08.576Z,-0.96
2023-02-13T23:43:36.044Z,-1.01
2023-02-13T23:46:05.037Z,-1.01
2023-02-13T23:48:33.014Z,-1.05
2023-02-13T23:51:01.434Z,-1.19
2023-02-13T23:53:29.095Z,-1.33
2023-02-13T23:55:56.501Z,-1.61
2023-02-13T23:58:24.003Z,-1.44
